sensor_id;sensor_type;location;lat;lon;timestamp;P1;durP1;ratioP1;P2;durP2;ratioP2
76833;SDS011;65793;42.678;23.332;2023-01-19T00:02:30;22.77;;;5.45;;
76833;SDS011;65793;42.678;23.332;2023-01-19T00:05:33;15.48;;;3.20;;
76833;SDS011;65793;42.678;23.332;2023-01-19T00:08:36;19.13;;;3.90;;
76833;SDS011;65793;42.678;23.332;2023-01-19T00:11:40;23.25;;;4.60;;
76833;SDS011;65793;42.678;23.332;2023-01-19T00:14:42;26.50;;;4.32;;
76833;SDS011;65793;42.678;23.332;2023-01-19T00:17:44;15.10;;;3.97;;
76833;SDS011;65793;42.678;23.332;2023-01-19T00:20:52;20.08;;;4.28;;
76833;SDS011;65793;42.678;23.332;2023-01-19T00:23:54;26.08;;;5.35;;
76833;SDS011;65793;42.678;23.332;2023-01-19T00:26:59;25.35;;;5.00;;
76833;SDS011;65793;42.678;23.332;2023-01-19T00:30:04;21.38;;;4.68;;
76833;SDS011;65793;42.678;23.332;2023-01-19T00:33:07;24.73;;;4.82;;
76833;SDS011;65793;42.678;23.332;2023-01-19T00:36:13;24.30;;;3.80;;
76833;SDS011;65793;42.678;23.332;2023-01-19T00:39:15;27.85;;;4.13;;
76833;SDS011;65793;42.678;23.332;2023-01-19T00:42:19;26.48;;;4.95;;
76833;SDS011;65793;42.678;23.332;2023-01-19T00:45:38;21.63;;;4.28;;
76833;SDS011;65793;42.678;23.332;2023-01-19T00:48:41;23.30;;;4.07;;
76833;SDS011;65793;42.678;23.332;2023-01-19T00:51:44;31.70;;;5.57;;
76833;SDS011;65793;42.678;23.332;2023-01-19T00:54:46;23.88;;;4.40;;
76833;SDS011;65793;42.678;23.332;2023-01-19T00:57:50;28.60;;;4.70;;
76833;SDS011;65793;42.678;23.332;2023-01-19T01:00:52;21.02;;;4.93;;
76833;SDS011;65793;42.678;23.332;2023-01-19T01:03:57;23.48;;;4.80;;
76833;SDS011;65793;42.678;23.332;2023-01-19T01:06:59;29.30;;;5.05;;
76833;SDS011;65793;42.678;23.332;2023-01-19T01:10:01;31.25;;;5.00;;
76833;SDS011;65793;42.678;23.332;2023-01-19T01:13:05;27.75;;;3.95;;
76833;SDS011;65793;42.678;23.332;2023-01-19T01:16:08;23.33;;;4.35;;
76833;SDS011;65793;42.678;23.332;2023-01-19T01:19:10;23.80;;;4.53;;
76833;SDS011;65793;42.678;23.332;2023-01-19T01:22:12;24.92;;;4.65;;
76833;SDS011;65793;42.678;23.332;2023-01-19T01:25:15;26.73;;;5.43;;
76833;SDS011;65793;42.678;23.332;2023-01-19T01:28:20;27.10;;;4.28;;
76833;SDS011;65793;42.678;23.332;2023-01-19T01:31:22;23.75;;;4.88;;
76833;SDS011;65793;42.678;23.332;2023-01-19T01:34:25;17.08;;;3.03;;
76833;SDS011;65793;42.678;23.332;2023-01-19T01:37:27;14.95;;;4.75;;
76833;SDS011;65793;42.678;23.332;2023-01-19T01:40:29;24.83;;;5.90;;
76833;SDS011;65793;42.678;23.332;2023-01-19T01:43:43;21.77;;;3.88;;
76833;SDS011;65793;42.678;23.332;2023-01-19T01:46:47;28.65;;;4.10;;
76833;SDS011;65793;42.678;23.332;2023-01-19T01:49:50;20.70;;;2.97;;
76833;SDS011;65793;42.678;23.332;2023-01-19T01:52:59;23.23;;;3.63;;
76833;SDS011;65793;42.678;23.332;2023-01-19T01:56:07;16.98;;;2.72;;
76833;SDS011;65793;42.678;23.332;2023-01-19T01:59:15;21.65;;;2.67;;
76833;SDS011;65793;42.678;23.332;2023-01-19T02:02:26;20.88;;;3.15;;
76833;SDS011;65793;42.678;23.332;2023-01-19T02:05:48;14.10;;;4.50;;
76833;SDS011;65793;42.678;23.332;2023-01-19T02:08:53;17.95;;;3.47;;
76833;SDS011;65793;42.678;23.332;2023-01-19T02:15:38;17.38;;;5.07;;
76833;SDS011;65793;42.678;23.332;2023-01-19T02:18:40;21.75;;;4.43;;
76833;SDS011;65793;42.678;23.332;2023-01-19T02:21:45;18.15;;;2.95;;
76833;SDS011;65793;42.678;23.332;2023-01-19T02:24:55;16.30;;;4.63;;
76833;SDS011;65793;42.678;23.332;2023-01-19T02:27:58;12.25;;;3.00;;
76833;SDS011;65793;42.678;23.332;2023-01-19T02:31:01;13.50;;;4.18;;
76833;SDS011;65793;42.678;23.332;2023-01-19T02:34:04;13.80;;;1.80;;
76833;SDS011;65793;42.678;23.332;2023-01-19T02:37:08;17.77;;;3.50;;
76833;SDS011;65793;42.678;23.332;2023-01-19T02:40:15;16.58;;;2.47;;
76833;SDS011;65793;42.678;23.332;2023-01-19T02:43:20;19.48;;;4.35;;
76833;SDS011;65793;42.678;23.332;2023-01-19T02:46:24;9.68;;;2.60;;
76833;SDS011;65793;42.678;23.332;2023-01-19T02:49:27;18.83;;;3.17;;
76833;SDS011;65793;42.678;23.332;2023-01-19T02:52:30;13.40;;;2.65;;
76833;SDS011;65793;42.678;23.332;2023-01-19T02:55:34;14.48;;;2.67;;
76833;SDS011;65793;42.678;23.332;2023-01-19T02:58:38;12.38;;;3.35;;
76833;SDS011;65793;42.678;23.332;2023-01-19T03:01:55;17.90;;;3.47;;
76833;SDS011;65793;42.678;23.332;2023-01-19T03:05:07;14.43;;;3.40;;
76833;SDS011;65793;42.678;23.332;2023-01-19T03:08:36;23.45;;;5.82;;
76833;SDS011;65793;42.678;23.332;2023-01-19T03:11:47;14.55;;;2.03;;
76833;SDS011;65793;42.678;23.332;2023-01-19T03:14:58;14.38;;;2.90;;
76833;SDS011;65793;42.678;23.332;2023-01-19T03:18:07;22.08;;;5.55;;
76833;SDS011;65793;42.678;23.332;2023-01-19T03:21:11;21.83;;;4.13;;
76833;SDS011;65793;42.678;23.332;2023-01-19T03:24:15;12.30;;;2.35;;
76833;SDS011;65793;42.678;23.332;2023-01-19T03:27:22;18.50;;;3.63;;
76833;SDS011;65793;42.678;23.332;2023-01-19T03:30:27;19.73;;;3.67;;
76833;SDS011;65793;42.678;23.332;2023-01-19T03:33:34;25.42;;;3.45;;
76833;SDS011;65793;42.678;23.332;2023-01-19T03:36:41;22.48;;;2.45;;
76833;SDS011;65793;42.678;23.332;2023-01-19T03:39:46;18.67;;;3.90;;
76833;SDS011;65793;42.678;23.332;2023-01-19T03:42:50;20.95;;;3.67;;
76833;SDS011;65793;42.678;23.332;2023-01-19T03:45:53;21.23;;;4.70;;
76833;SDS011;65793;42.678;23.332;2023-01-19T03:48:57;22.77;;;3.50;;
76833;SDS011;65793;42.678;23.332;2023-01-19T03:52:00;19.73;;;4.90;;
76833;SDS011;65793;42.678;23.332;2023-01-19T03:55:03;23.55;;;3.85;;
76833;SDS011;65793;42.678;23.332;2023-01-19T03:58:08;21.88;;;3.70;;
76833;SDS011;65793;42.678;23.332;2023-01-19T04:01:10;35.53;;;7.13;;
76833;SDS011;65793;42.678;23.332;2023-01-19T04:04:13;28.15;;;4.30;;
76833;SDS011;65793;42.678;23.332;2023-01-19T04:07:15;17.90;;;3.05;;
76833;SDS011;65793;42.678;23.332;2023-01-19T04:10:18;24.42;;;5.22;;
76833;SDS011;65793;42.678;23.332;2023-01-19T04:13:22;23.63;;;6.55;;
76833;SDS011;65793;42.678;23.332;2023-01-19T04:16:26;33.55;;;5.50;;
76833;SDS011;65793;42.678;23.332;2023-01-19T04:19:29;31.70;;;4.65;;
76833;SDS011;65793;42.678;23.332;2023-01-19T04:22:31;20.73;;;4.20;;
76833;SDS011;65793;42.678;23.332;2023-01-19T04:25:34;36.25;;;8.10;;
76833;SDS011;65793;42.678;23.332;2023-01-19T04:28:37;16.75;;;4.78;;
76833;SDS011;65793;42.678;23.332;2023-01-19T04:31:40;31.17;;;7.28;;
76833;SDS011;65793;42.678;23.332;2023-01-19T04:34:42;27.17;;;5.43;;
76833;SDS011;65793;42.678;23.332;2023-01-19T04:37:44;34.45;;;6.63;;
76833;SDS011;65793;42.678;23.332;2023-01-19T04:40:47;30.25;;;7.03;;
76833;SDS011;65793;42.678;23.332;2023-01-19T04:43:51;35.45;;;5.20;;
76833;SDS011;65793;42.678;23.332;2023-01-19T04:46:54;25.00;;;7.20;;
76833;SDS011;65793;42.678;23.332;2023-01-19T04:49:56;31.02;;;7.28;;
76833;SDS011;65793;42.678;23.332;2023-01-19T04:52:58;29.02;;;6.65;;
76833;SDS011;65793;42.678;23.332;2023-01-19T04:56:01;34.58;;;5.60;;
76833;SDS011;65793;42.678;23.332;2023-01-19T04:59:08;32.60;;;6.75;;
76833;SDS011;65793;42.678;23.332;2023-01-19T05:02:10;40.83;;;5.63;;
76833;SDS011;65793;42.678;23.332;2023-01-19T05:05:16;33.25;;;6.00;;
76833;SDS011;65793;42.678;23.332;2023-01-19T05:08:18;33.47;;;7.38;;
76833;SDS011;65793;42.678;23.332;2023-01-19T05:11:21;26.05;;;5.95;;
76833;SDS011;65793;42.678;23.332;2023-01-19T05:14:27;30.40;;;5.05;;
76833;SDS011;65793;42.678;23.332;2023-01-19T05:17:29;25.52;;;4.93;;
76833;SDS011;65793;42.678;23.332;2023-01-19T05:20:32;37.35;;;9.88;;
76833;SDS011;65793;42.678;23.332;2023-01-19T05:23:34;33.15;;;6.30;;
76833;SDS011;65793;42.678;23.332;2023-01-19T05:26:37;28.95;;;6.03;;
76833;SDS011;65793;42.678;23.332;2023-01-19T05:29:40;23.73;;;6.63;;
76833;SDS011;65793;42.678;23.332;2023-01-19T05:32:42;33.90;;;7.50;;
76833;SDS011;65793;42.678;23.332;2023-01-19T05:35:45;30.65;;;7.88;;
76833;SDS011;65793;42.678;23.332;2023-01-19T05:38:47;28.83;;;5.40;;
76833;SDS011;65793;42.678;23.332;2023-01-19T05:41:50;31.20;;;5.13;;
76833;SDS011;65793;42.678;23.332;2023-01-19T05:44:54;32.00;;;7.65;;
76833;SDS011;65793;42.678;23.332;2023-01-19T05:47:56;19.67;;;5.88;;
76833;SDS011;65793;42.678;23.332;2023-01-19T05:50:59;38.05;;;6.07;;
76833;SDS011;65793;42.678;23.332;2023-01-19T05:54:02;23.30;;;7.15;;
76833;SDS011;65793;42.678;23.332;2023-01-19T05:57:07;33.10;;;6.57;;
76833;SDS011;65793;42.678;23.332;2023-01-19T13:37:23;9.95;;;2.75;;
76833;SDS011;65793;42.678;23.332;2023-01-19T13:41:14;12.13;;;2.33;;
76833;SDS011;65793;42.678;23.332;2023-01-19T13:44:57;7.80;;;2.15;;
76833;SDS011;65793;42.678;23.332;2023-01-19T13:48:54;8.13;;;1.67;;
76833;SDS011;65793;42.678;23.332;2023-01-19T13:56:25;6.40;;;2.28;;
76833;SDS011;65793;42.678;23.332;2023-01-19T14:00:16;5.55;;;1.65;;
76833;SDS011;65793;42.678;23.332;2023-01-19T14:03:31;12.82;;;2.83;;
76833;SDS011;65793;42.678;23.332;2023-01-19T14:06:52;6.35;;;2.08;;
76833;SDS011;65793;42.678;23.332;2023-01-19T14:10:02;6.75;;;1.30;;
76833;SDS011;65793;42.678;23.332;2023-01-19T14:22:09;7.93;;;1.45;;
76833;SDS011;65793;42.678;23.332;2023-01-19T14:29:06;6.90;;;1.80;;
76833;SDS011;65793;42.678;23.332;2023-01-19T14:32:44;7.38;;;2.35;;
76833;SDS011;65793;42.678;23.332;2023-01-19T14:36:10;6.10;;;1.35;;
76833;SDS011;65793;42.678;23.332;2023-01-19T15:38:57;5.97;;;2.28;;
76833;SDS011;65793;42.678;23.332;2023-01-19T15:42:13;7.30;;;1.50;;
76833;SDS011;65793;42.678;23.332;2023-01-19T15:45:48;9.32;;;2.33;;
76833;SDS011;65793;42.678;23.332;2023-01-19T15:49:32;5.47;;;2.35;;
76833;SDS011;65793;42.678;23.332;2023-01-19T16:08:02;7.03;;;1.80;;
76833;SDS011;65793;42.678;23.332;2023-01-19T16:11:40;8.48;;;2.13;;
76833;SDS011;65793;42.678;23.332;2023-01-19T16:14:47;6.93;;;1.75;;
76833;SDS011;65793;42.678;23.332;2023-01-19T16:18:04;10.45;;;3.30;;
76833;SDS011;65793;42.678;23.332;2023-01-19T16:58:21;1.45;;;0.90;;
76833;SDS011;65793;42.678;23.332;2023-01-19T17:01:37;3.22;;;1.35;;
76833;SDS011;65793;42.678;23.332;2023-01-19T17:04:56;3.80;;;1.50;;
76833;SDS011;65793;42.678;23.332;2023-01-19T17:08:35;1.75;;;0.77;;
76833;SDS011;65793;42.678;23.332;2023-01-19T17:11:47;5.10;;;1.88;;
76833;SDS011;65793;42.678;23.332;2023-01-19T17:19:19;3.25;;;2.05;;
76833;SDS011;65793;42.678;23.332;2023-01-19T17:22:58;4.43;;;2.95;;
76833;SDS011;65793;42.678;23.332;2023-01-19T17:26:27;8.85;;;3.15;;
76833;SDS011;65793;42.678;23.332;2023-01-19T17:30:01;3.05;;;2.13;;
76833;SDS011;65793;42.678;23.332;2023-01-19T17:37:14;1.15;;;1.15;;
76833;SDS011;65793;42.678;23.332;2023-01-19T17:40:30;5.00;;;1.58;;
76833;SDS011;65793;42.678;23.332;2023-01-19T17:44:33;3.50;;;1.73;;
76833;SDS011;65793;42.678;23.332;2023-01-19T17:47:51;2.47;;;1.80;;
76833;SDS011;65793;42.678;23.332;2023-01-19T18:13:58;5.57;;;3.55;;
76833;SDS011;65793;42.678;23.332;2023-01-19T18:17:23;2.92;;;2.63;;
76833;SDS011;65793;42.678;23.332;2023-01-19T18:21:07;6.50;;;3.08;;
76833;SDS011;65793;42.678;23.332;2023-01-19T18:24:53;5.22;;;4.18;;
76833;SDS011;65793;42.678;23.332;2023-01-19T18:28:11;11.02;;;3.92;;
76833;SDS011;65793;42.678;23.332;2023-01-19T18:43:10;2.00;;;1.77;;
76833;SDS011;65793;42.678;23.332;2023-01-19T18:46:20;2.58;;;1.40;;
76833;SDS011;65793;42.678;23.332;2023-01-19T18:50:00;3.33;;;1.10;;
76833;SDS011;65793;42.678;23.332;2023-01-19T18:53:39;4.25;;;2.80;;
76833;SDS011;65793;42.678;23.332;2023-01-19T19:23:10;0.60;;;0.60;;
76833;SDS011;65793;42.678;23.332;2023-01-19T19:30:16;1.95;;;0.90;;
76833;SDS011;65793;42.678;23.332;2023-01-19T19:33:52;1.83;;;0.90;;
76833;SDS011;65793;42.678;23.332;2023-01-19T19:37:24;1.10;;;0.90;;
76833;SDS011;65793;42.678;23.332;2023-01-19T20:14:32;1.35;;;0.65;;
76833;SDS011;65793;42.678;23.332;2023-01-19T20:18:06;2.95;;;0.40;;
76833;SDS011;65793;42.678;23.332;2023-01-19T20:28:56;2.65;;;2.08;;
76833;SDS011;65793;42.678;23.332;2023-01-19T21:50:03;1.88;;;1.77;;
76833;SDS011;65793;42.678;23.332;2023-01-19T21:53:50;4.55;;;1.45;;
76833;SDS011;65793;42.678;23.332;2023-01-19T22:01:36;5.45;;;4.07;;
76833;SDS011;65793;42.678;23.332;2023-01-19T22:09:31;7.30;;;6.60;;
76833;SDS011;65793;42.678;23.332;2023-01-19T22:12:38;9.60;;;6.68;;
76833;SDS011;65793;42.678;23.332;2023-01-19T22:15:45;6.70;;;4.93;;
76833;SDS011;65793;42.678;23.332;2023-01-19T22:19:08;9.43;;;6.82;;
76833;SDS011;65793;42.678;23.332;2023-01-19T22:22:20;8.20;;;5.90;;
76833;SDS011;65793;42.678;23.332;2023-01-19T22:36:46;5.72;;;5.07;;
76833;SDS011;65793;42.678;23.332;2023-01-19T22:39:52;5.20;;;4.70;;
76833;SDS011;65793;42.678;23.332;2023-01-19T22:43:04;4.03;;;3.00;;
76833;SDS011;65793;42.678;23.332;2023-01-19T22:46:10;4.47;;;3.83;;
76833;SDS011;65793;42.678;23.332;2023-01-19T22:49:17;7.03;;;4.82;;
76833;SDS011;65793;42.678;23.332;2023-01-19T22:52:37;6.78;;;4.85;;
76833;SDS011;65793;42.678;23.332;2023-01-19T22:55:41;8.95;;;5.63;;
76833;SDS011;65793;42.678;23.332;2023-01-19T22:58:47;4.88;;;3.97;;
76833;SDS011;65793;42.678;23.332;2023-01-19T23:01:53;6.97;;;5.25;;
76833;SDS011;65793;42.678;23.332;2023-01-19T23:04:58;9.90;;;5.22;;
76833;SDS011;65793;42.678;23.332;2023-01-19T23:08:16;8.43;;;2.70;;
76833;SDS011;65793;42.678;23.332;2023-01-19T23:11:19;4.03;;;2.47;;
76833;SDS011;65793;42.678;23.332;2023-01-19T23:14:22;2.63;;;2.42;;
76833;SDS011;65793;42.678;23.332;2023-01-19T23:17:25;2.60;;;2.40;;
76833;SDS011;65793;42.678;23.332;2023-01-19T23:20:26;2.90;;;2.58;;
76833;SDS011;65793;42.678;23.332;2023-01-19T23:23:30;3.33;;;2.38;;
76833;SDS011;65793;42.678;23.332;2023-01-19T23:29:37;5.15;;;3.03;;
76833;SDS011;65793;42.678;23.332;2023-01-19T23:32:39;4.57;;;3.45;;
76833;SDS011;65793;42.678;23.332;2023-01-19T23:35:49;5.80;;;4.43;;
76833;SDS011;65793;42.678;23.332;2023-01-19T23:38:53;6.15;;;3.95;;
76833;SDS011;65793;42.678;23.332;2023-01-19T23:41:56;4.07;;;2.50;;
76833;SDS011;65793;42.678;23.332;2023-01-19T23:44:58;2.15;;;1.75;;
76833;SDS011;65793;42.678;23.332;2023-01-19T23:48:00;2.85;;;1.45;;
76833;SDS011;65793;42.678;23.332;2023-01-19T23:51:04;1.58;;;1.02;;
76833;SDS011;65793;42.678;23.332;2023-01-19T23:54:12;1.23;;;1.20;;
